Toca, Louisiana
Current Conditions -  °F | °C
As of 11:55 AM on Friday 31 Oct 2014 (Local Time) from KNBG Reporting Station
Clear Clear  
Wind Chill: 74°   Ceiling: Unl
Heat Index: 74°   Visibility: 10mi
Dew Point: 45°   Wind: 9mph
Humidity: 35%   Direction: 300°WNW
Pressure: 30.04"   Gusts: NA
Location:  29.8369°N, 89.7702°W
Report Text: KNBG 311655Z 30008KT 270V330 10SM CLR 23/07 A3004 RMK AO2 SLP172 T02330072 $
Loading
Personal Weather Stations






























Interactive Weather Map
Tropical Storm Tracking
New forecast layout! Learn more

10-Day Weather Forecast

Advertisements
Track Severe Weather on mobile